createdAt,value
2022-12-25T00:00:25.030Z,204.25
2022-12-25T00:05:24.990Z,205.90
2022-12-25T00:10:24.821Z,207.70
2022-12-25T00:15:24.777Z,208.62
2022-12-25T00:20:24.660Z,207.57
2022-12-25T00:25:24.634Z,205.77
2022-12-25T00:30:24.569Z,204.37
2022-12-25T00:35:24.514Z,202.75
2022-12-25T00:40:24.644Z,202.75
2022-12-25T00:45:25.854Z,202.88
2022-12-25T00:50:24.262Z,204.88
2022-12-25T00:55:24.997Z,203.62
2022-12-25T01:00:24.145Z,204.63
2022-12-25T01:05:44.497Z,203.12
2022-12-25T01:10:36.921Z,204.88
2022-12-25T01:15:36.814Z,205.13
2022-12-25T01:20:37.444Z,205.13
2022-12-25T01:25:36.682Z,203.75
2022-12-25T01:30:36.669Z,205.39
2022-12-25T01:35:36.559Z,204.75
2022-12-25T01:40:37.192Z,205.39
2022-12-25T01:45:36.491Z,204.88
2022-12-25T01:50:36.360Z,205.77
2022-12-25T01:55:36.322Z,205.77
2022-12-25T02:00:36.354Z,206.41
2022-12-25T02:05:36.175Z,207.18
2022-12-25T02:10:36.081Z,207.70
2022-12-25T02:15:36.088Z,209.40
2022-12-25T02:20:36.120Z,210.20
2022-12-25T02:25:35.916Z,210.74
2022-12-25T02:30:36.393Z,210.47
2022-12-25T02:35:36.220Z,210.20
2022-12-25T02:40:36.919Z,206.41
2022-12-25T02:45:35.914Z,204.37
2022-12-25T02:50:35.563Z,205.26
2022-12-25T02:55:35.500Z,203.12
2022-12-25T03:00:36.153Z,204.37
2022-12-25T03:05:36.038Z,202.13
2022-12-25T03:10:35.822Z,202.13
2022-12-25T03:15:35.895Z,201.40
2022-12-25T03:20:35.283Z,200.91
2022-12-25T03:25:35.765Z,201.40
2022-12-25T03:30:35.051Z,200.67
2022-12-25T03:35:34.979Z,200.18
2022-12-25T03:40:34.879Z,199.82
2022-12-25T03:45:34.805Z,200.18
2022-12-25T03:50:34.748Z,200.06
2022-12-25T03:55:35.379Z,199.70
2022-12-25T04:00:35.305Z,199.70
2022-12-25T04:05:35.203Z,199.34
2022-12-25T04:10:35.024Z,199.22
2022-12-25T04:15:35.140Z,198.51
2022-12-25T04:20:34.347Z,198.74
2022-12-25T04:25:34.947Z,200.18
2022-12-25T04:30:34.905Z,199.22
2022-12-25T04:35:34.161Z,198.15
2022-12-25T04:40:34.774Z,198.74
2022-12-25T04:45:34.031Z,196.62
2022-12-25T04:50:34.068Z,196.16
2022-12-25T04:55:33.904Z,197.09
2022-12-25T05:00:34.499Z,196.39
2022-12-25T05:05:33.964Z,195.93
2022-12-25T05:10:35.129Z,196.62
2022-12-25T05:15:35.095Z,197.56
2022-12-25T05:20:39.746Z,197.91
2022-12-25T05:25:34.510Z,198.74
2022-12-25T05:30:33.509Z,197.79
2022-12-25T05:35:34.030Z,196.62
2022-12-25T05:40:33.276Z,196.62
2022-12-25T05:45:33.201Z,198.15
2022-12-25T05:50:33.637Z,198.98
2022-12-25T05:55:33.790Z,199.58
2022-12-25T06:00:33.744Z,200.79
2022-12-25T06:05:33.607Z,201.27
2022-12-25T06:10:33.359Z,200.79
2022-12-25T06:15:32.827Z,200.91
2022-12-25T06:20:32.820Z,201.40
2022-12-25T06:25:32.684Z,201.03
2022-12-25T06:30:32.697Z,201.76
2022-12-25T06:35:33.217Z,201.52
2022-12-25T06:40:32.461Z,202.63
2022-12-25T06:45:33.149Z,204.88
2022-12-25T06:50:32.341Z,206.02
2022-12-25T06:55:32.970Z,208.62
2022-12-25T07:00:48.114Z,208.22
2022-12-25T07:05:40.577Z,211.41
2022-12-25T07:10:40.405Z,211.41
2022-12-25T07:15:40.875Z,213.04
2022-12-25T07:20:40.269Z,219.96
2022-12-25T07:25:40.197Z,220.10
2022-12-25T07:30:40.846Z,221.42
2022-12-25T07:35:40.067Z,222.76
2022-12-25T07:40:39.999Z,221.42
2022-12-25T07:45:39.938Z,222.16
2022-12-25T07:50:39.862Z,221.72
2022-12-25T07:55:39.775Z,223.06
2022-12-25T08:00:39.807Z,222.01
2022-12-25T08:05:39.703Z,224.42
2022-12-25T08:10:39.603Z,221.27
2022-12-25T08:15:39.507Z,225.18
2022-12-25T08:20:39.452Z,227.49
2022-12-25T08:25:39.380Z,230.34
2022-12-25T08:30:39.380Z,228.59
2022-12-25T08:35:39.251Z,225.33
2022-12-25T08:40:39.183Z,225.79
2022-12-25T08:45:39.108Z,221.87
2022-12-25T08:50:39.062Z,216.37
2022-12-25T08:55:38.993Z,217.93
2022-12-25T09:00:38.931Z,215.81
2022-12-25T09:05:38.848Z,215.25
2022-12-25T09:10:39.014Z,214.55
2022-12-25T09:15:38.839Z,214.13
2022-12-25T09:20:38.652Z,213.31
2022-12-25T09:25:38.622Z,213.17
2022-12-25T09:30:38.565Z,211.00
2022-12-25T09:35:38.441Z,208.35
2022-12-25T09:40:38.385Z,207.18
2022-12-25T09:45:38.308Z,205.26
2022-12-25T09:50:38.227Z,202.88
2022-12-25T09:55:38.179Z,201.64
2022-12-25T10:00:38.161Z,199.82
2022-12-25T10:05:38.016Z,197.56
2022-12-25T10:10:37.978Z,196.39
2022-12-25T10:15:45.070Z,192.29
2022-12-25T10:20:38.854Z,192.74
2022-12-25T10:25:37.759Z,191.52
2022-12-25T10:30:37.703Z,188.79
2022-12-25T10:35:37.628Z,189.44
2022-12-25T10:40:37.570Z,190.42
2022-12-25T10:45:37.500Z,190.53
2022-12-25T10:50:37.448Z,189.55
2022-12-25T10:55:37.364Z,190.42
2022-12-25T11:00:37.334Z,189.55
2022-12-25T11:05:37.246Z,189.55
2022-12-25T11:10:37.174Z,188.90
2022-12-25T11:15:37.117Z,188.26
2022-12-25T11:20:38.419Z,185.73
2022-12-25T11:25:36.956Z,185.24
2022-12-25T11:30:36.926Z,185.44
2022-12-25T11:35:36.861Z,185.44
2022-12-25T11:40:36.771Z,183.62
2022-12-25T11:45:36.713Z,184.63
2022-12-25T11:50:36.639Z,184.02
2022-12-25T11:55:36.613Z,185.03
2022-12-25T12:00:36.519Z,183.62
2022-12-25T12:05:36.407Z,184.43
2022-12-25T12:10:36.345Z,183.62
2022-12-25T12:15:36.282Z,181.26
2022-12-25T12:20:36.241Z,181.45
2022-12-25T12:25:36.153Z,180.29
2022-12-25T12:30:36.087Z,179.33
2022-12-25T12:35:36.224Z,181.06
2022-12-25T12:40:35.981Z,181.26
2022-12-25T12:45:35.988Z,182.24
2022-12-25T12:50:35.834Z,180.87
2022-12-25T12:55:35.725Z,177.82
2022-12-25T13:00:36.644Z,177.82
2022-12-25T13:05:35.793Z,178.19
2022-12-25T13:10:35.555Z,176.52
2022-12-25T13:15:35.468Z,177.07
2022-12-25T13:20:35.416Z,175.78
2022-12-25T13:25:35.323Z,180.67
2022-12-25T13:30:35.281Z,179.33
2022-12-25T13:35:35.217Z,180.87
2022-12-25T13:40:35.151Z,180.48
2022-12-25T13:45:35.146Z,178.57
2022-12-25T13:50:35.003Z,179.71
2022-12-25T13:55:34.926Z,178.01
2022-12-25T14:00:34.869Z,177.26
2022-12-25T14:05:42.053Z,176.89
2022-12-25T14:10:36.367Z,177.07
2022-12-25T14:15:34.652Z,177.26
2022-12-25T14:20:34.598Z,178.38
2022-12-25T14:25:34.517Z,177.26
2022-12-25T14:30:34.624Z,176.33
2022-12-25T14:35:34.379Z,174.69
2022-12-25T14:40:34.323Z,174.69
2022-12-25T14:45:34.951Z,174.51
2022-12-25T14:50:34.361Z,174.33
2022-12-25T14:55:34.114Z,174.69
2022-12-25T15:00:34.061Z,176.33
2022-12-25T15:05:33.993Z,177.63
2022-12-25T15:15:35.006Z,177.26
2022-12-25T15:20:33.770Z,177.44
2022-12-25T15:25:33.711Z,176.70
2022-12-25T15:30:33.668Z,179.14
2022-12-25T15:35:33.568Z,180.48
2022-12-25T15:40:33.529Z,181.06
2022-12-25T15:45:33.439Z,179.33
2022-12-25T15:50:33.384Z,178.76
2022-12-25T15:55:33.315Z,178.76
2022-12-25T16:00:33.247Z,178.38
2022-12-25T16:05:33.168Z,177.63
2022-12-25T16:10:38.499Z,178.76
2022-12-25T16:15:34.095Z,179.71
2022-12-25T16:20:32.991Z,180.67
2022-12-25T16:25:33.061Z,179.71
2022-12-25T16:30:32.855Z,178.95
2022-12-25T16:35:32.764Z,178.95
2022-12-25T16:40:32.696Z,180.29
2022-12-25T16:45:32.637Z,180.48
2022-12-25T16:50:32.585Z,182.43
2022-12-25T16:55:32.505Z,181.65
2022-12-25T17:00:32.470Z,179.90
2022-12-25T17:05:32.371Z,178.95
2022-12-25T17:10:32.310Z,178.95
2022-12-25T17:15:32.227Z,178.19
2022-12-25T17:20:32.252Z,176.70
2022-12-25T17:25:32.112Z,178.19
2022-12-25T17:30:32.046Z,176.89
2022-12-25T17:35:31.986Z,178.01
2022-12-25T17:40:31.907Z,177.07
2022-12-25T17:45:31.848Z,177.44
2022-12-25T17:50:34.650Z,178.01
2022-12-25T17:55:32.711Z,176.33
2022-12-25T18:00:31.643Z,175.96
2022-12-25T18:05:31.562Z,175.78
2022-12-25T18:10:31.501Z,175.96
2022-12-25T18:15:31.453Z,173.97
2022-12-25T18:20:37.692Z,173.97
2022-12-25T18:25:32.347Z,175.05
2022-12-25T18:30:31.241Z,173.79
2022-12-25T18:35:32.092Z,173.25
2022-12-25T18:40:31.116Z,173.08
2022-12-25T18:45:31.123Z,173.79
2022-12-25T18:50:30.975Z,172.37
2022-12-25T18:55:30.934Z,174.33
2022-12-25T19:00:30.916Z,174.69
2022-12-25T19:05:30.758Z,176.15
2022-12-25T19:10:30.688Z,174.87
2022-12-25T19:15:30.624Z,175.96
2022-12-25T19:20:30.565Z,176.15
2022-12-25T19:25:30.490Z,177.82
2022-12-25T19:30:30.461Z,179.71
2022-12-25T19:35:30.357Z,179.14
2022-12-25T19:40:30.284Z,180.10
2022-12-25T19:45:30.223Z,179.52
2022-12-25T19:50:30.152Z,179.71
2022-12-25T19:55:30.075Z,180.29
2022-12-25T20:00:30.026Z,178.95
2022-12-25T20:05:29.952Z,179.33
2022-12-25T20:10:29.898Z,179.14
2022-12-25T20:15:29.820Z,179.52
2022-12-25T20:20:29.764Z,182.43
2022-12-25T20:25:29.697Z,184.43
2022-12-25T20:30:29.631Z,185.85
2022-12-25T20:35:29.570Z,185.03
2022-12-25T20:40:29.497Z,182.83
2022-12-25T20:45:29.487Z,183.62
2022-12-25T20:50:29.357Z,182.43
2022-12-25T20:55:29.280Z,181.65
2022-12-25T21:00:29.227Z,183.22
2022-12-25T21:05:29.136Z,183.03
2022-12-25T21:10:29.096Z,182.43
2022-12-25T21:15:29.240Z,183.42
2022-12-25T21:20:28.970Z,186.46
2022-12-25T21:25:28.855Z,185.85
2022-12-25T21:30:28.871Z,186.04
2022-12-25T21:35:28.763Z,184.83
2022-12-25T21:40:28.689Z,186.67
2022-12-25T21:45:28.611Z,186.04
2022-12-25T21:50:28.548Z,188.58
2022-12-25T21:55:28.463Z,188.04
2022-12-25T22:00:58.388Z,189.01
2022-12-25T22:05:33.448Z,192.74
2022-12-25T22:10:31.450Z,192.07
2022-12-25T22:15:32.245Z,192.07
2022-12-25T22:20:40.335Z,189.44
2022-12-25T22:25:34.977Z,187.30
2022-12-25T22:30:37.564Z,186.67
2022-12-25T22:35:38.449Z,188.58
2022-12-25T22:40:38.404Z,189.98
2022-12-25T22:45:52.683Z,190.09
2022-12-25T22:50:45.835Z,189.01
2022-12-25T22:55:31.606Z,186.98
2022-12-25T23:00:27.891Z,185.42
2022-12-25T23:05:27.512Z,186.67
2022-12-25T23:10:27.460Z,185.31
2022-12-25T23:15:27.377Z,186.25
2022-12-25T23:20:27.354Z,187.94
2022-12-25T23:25:27.245Z,189.44
2022-12-25T23:30:27.246Z,188.90
2022-12-25T23:35:27.131Z,189.22
2022-12-25T23:40:27.077Z,190.31
2022-12-25T23:45:27.025Z,190.09
2022-12-25T23:50:26.935Z,188.90
2022-12-25T23:55:26.839Z,187.83
